sensor_id;sensor_type;location;lat;lon;timestamp;P1;durP1;ratioP1;P2;durP2;ratioP2
23432;SDS011;41331;45.412;10.992;2023-08-06T00:01:13;8.07;;;1.90;;
23432;SDS011;41331;45.412;10.992;2023-08-06T00:03:42;3.30;;;1.58;;
23432;SDS011;41331;45.412;10.992;2023-08-06T00:06:09;3.50;;;1.75;;
23432;SDS011;41331;45.412;10.992;2023-08-06T00:08:37;3.50;;;1.58;;
23432;SDS011;41331;45.412;10.992;2023-08-06T00:11:04;4.53;;;1.70;;
23432;SDS011;41331;45.412;10.992;2023-08-06T00:13:32;3.65;;;1.65;;
23432;SDS011;41331;45.412;10.992;2023-08-06T00:16:12;4.63;;;1.40;;
23432;SDS011;41331;45.412;10.992;2023-08-06T00:18:40;2.85;;;1.30;;
23432;SDS011;41331;45.412;10.992;2023-08-06T00:21:08;5.97;;;1.70;;
23432;SDS011;41331;45.412;10.992;2023-08-06T00:23:39;6.35;;;1.45;;
23432;SDS011;41331;45.412;10.992;2023-08-06T00:26:07;3.53;;;1.63;;
23432;SDS011;41331;45.412;10.992;2023-08-06T00:28:34;3.42;;;1.50;;
23432;SDS011;41331;45.412;10.992;2023-08-06T00:31:02;3.00;;;1.55;;
23432;SDS011;41331;45.412;10.992;2023-08-06T00:33:29;3.53;;;1.60;;
23432;SDS011;41331;45.412;10.992;2023-08-06T00:35:57;3.50;;;1.45;;
23432;SDS011;41331;45.412;10.992;2023-08-06T00:38:24;3.83;;;1.50;;
23432;SDS011;41331;45.412;10.992;2023-08-06T00:40:51;4.05;;;1.30;;
23432;SDS011;41331;45.412;10.992;2023-08-06T00:43:20;3.72;;;1.48;;
23432;SDS011;41331;45.412;10.992;2023-08-06T00:45:47;7.25;;;1.58;;
23432;SDS011;41331;45.412;10.992;2023-08-06T00:48:15;4.53;;;1.55;;
23432;SDS011;41331;45.412;10.992;2023-08-06T00:50:43;3.95;;;1.45;;
23432;SDS011;41331;45.412;10.992;2023-08-06T00:53:11;3.05;;;1.35;;
23432;SDS011;41331;45.412;10.992;2023-08-06T00:55:41;3.42;;;1.50;;
23432;SDS011;41331;45.412;10.992;2023-08-06T00:58:12;2.75;;;1.30;;
23432;SDS011;41331;45.412;10.992;2023-08-06T01:00:41;2.50;;;1.20;;
23432;SDS011;41331;45.412;10.992;2023-08-06T01:03:08;2.85;;;1.35;;
23432;SDS011;41331;45.412;10.992;2023-08-06T01:05:36;3.53;;;1.48;;
23432;SDS011;41331;45.412;10.992;2023-08-06T01:13:46;2.80;;;1.40;;
23432;SDS011;41331;45.412;10.992;2023-08-06T01:16:18;5.15;;;1.45;;
23432;SDS011;41331;45.412;10.992;2023-08-06T01:18:50;5.50;;;1.73;;
23432;SDS011;41331;45.412;10.992;2023-08-06T01:21:18;3.42;;;1.75;;
23432;SDS011;41331;45.412;10.992;2023-08-06T01:23:46;2.60;;;1.48;;
23432;SDS011;41331;45.412;10.992;2023-08-06T01:29:09;2.97;;;1.20;;
23432;SDS011;41331;45.412;10.992;2023-08-06T01:31:47;4.35;;;1.60;;
23432;SDS011;41331;45.412;10.992;2023-08-06T01:34:17;3.05;;;1.58;;
23432;SDS011;41331;45.412;10.992;2023-08-06T01:36:48;3.55;;;1.58;;
23432;SDS011;41331;45.412;10.992;2023-08-06T01:39:17;3.05;;;1.38;;
23432;SDS011;41331;45.412;10.992;2023-08-06T01:41:48;3.13;;;1.50;;
23432;SDS011;41331;45.412;10.992;2023-08-06T01:44:16;4.28;;;1.30;;
23432;SDS011;41331;45.412;10.992;2023-08-06T01:46:44;4.07;;;1.52;;
23432;SDS011;41331;45.412;10.992;2023-08-06T01:49:11;5.93;;;1.50;;
23432;SDS011;41331;45.412;10.992;2023-08-06T01:51:39;4.03;;;1.60;;
23432;SDS011;41331;45.412;10.992;2023-08-06T01:54:06;8.18;;;2.58;;
23432;SDS011;41331;45.412;10.992;2023-08-06T01:56:34;3.72;;;1.70;;
23432;SDS011;41331;45.412;10.992;2023-08-06T01:59:01;3.47;;;1.63;;
23432;SDS011;41331;45.412;10.992;2023-08-06T02:01:31;4.63;;;1.88;;
23432;SDS011;41331;45.412;10.992;2023-08-06T02:03:59;3.08;;;1.60;;
23432;SDS011;41331;45.412;10.992;2023-08-06T02:06:26;7.75;;;1.58;;
23432;SDS011;41331;45.412;10.992;2023-08-06T02:08:54;5.32;;;1.63;;
23432;SDS011;41331;45.412;10.992;2023-08-06T02:11:22;4.88;;;1.90;;
23432;SDS011;41331;45.412;10.992;2023-08-06T02:13:49;5.25;;;1.70;;
23432;SDS011;41331;45.412;10.992;2023-08-06T02:16:18;3.13;;;1.70;;
23432;SDS011;41331;45.412;10.992;2023-08-06T02:18:46;4.82;;;1.80;;
23432;SDS011;41331;45.412;10.992;2023-08-06T02:21:24;2.92;;;1.40;;
23432;SDS011;41331;45.412;10.992;2023-08-06T02:23:53;7.15;;;2.75;;
23432;SDS011;41331;45.412;10.992;2023-08-06T02:26:20;6.63;;;1.98;;
23432;SDS011;41331;45.412;10.992;2023-08-06T02:28:48;4.53;;;1.65;;
23432;SDS011;41331;45.412;10.992;2023-08-06T02:31:15;3.30;;;1.60;;
23432;SDS011;41331;45.412;10.992;2023-08-06T02:33:43;4.38;;;1.80;;
23432;SDS011;41331;45.412;10.992;2023-08-06T02:36:10;4.47;;;1.38;;
23432;SDS011;41331;45.412;10.992;2023-08-06T02:38:38;3.38;;;1.63;;
23432;SDS011;41331;45.412;10.992;2023-08-06T02:41:06;2.92;;;1.50;;
23432;SDS011;41331;45.412;10.992;2023-08-06T02:43:33;3.30;;;1.35;;
23432;SDS011;41331;45.412;10.992;2023-08-06T02:46:01;4.35;;;1.70;;
23432;SDS011;41331;45.412;10.992;2023-08-06T02:48:29;3.17;;;1.67;;
23432;SDS011;41331;45.412;10.992;2023-08-06T02:50:57;2.67;;;1.35;;
23432;SDS011;41331;45.412;10.992;2023-08-06T02:53:30;4.50;;;1.63;;
23432;SDS011;41331;45.412;10.992;2023-08-06T02:58:44;3.15;;;1.67;;
23432;SDS011;41331;45.412;10.992;2023-08-06T03:01:26;8.52;;;1.30;;
23432;SDS011;41331;45.412;10.992;2023-08-06T03:04:00;4.07;;;1.52;;
23432;SDS011;41331;45.412;10.992;2023-08-06T03:06:34;4.30;;;1.88;;
23432;SDS011;41331;45.412;10.992;2023-08-06T03:09:03;3.28;;;1.40;;
23432;SDS011;41331;45.412;10.992;2023-08-06T03:11:30;4.80;;;1.52;;
23432;SDS011;41331;45.412;10.992;2023-08-06T03:14:04;6.40;;;1.50;;
23432;SDS011;41331;45.412;10.992;2023-08-06T03:16:32;5.20;;;1.73;;
23432;SDS011;41331;45.412;10.992;2023-08-06T03:19:00;4.07;;;1.58;;
23432;SDS011;41331;45.412;10.992;2023-08-06T03:21:28;3.65;;;1.48;;
23432;SDS011;41331;45.412;10.992;2023-08-06T03:23:57;3.00;;;1.40;;
23432;SDS011;41331;45.412;10.992;2023-08-06T03:26:29;4.80;;;1.60;;
23432;SDS011;41331;45.412;10.992;2023-08-06T03:28:57;4.00;;;1.50;;
23432;SDS011;41331;45.412;10.992;2023-08-06T03:31:25;2.90;;;1.70;;
23432;SDS011;41331;45.412;10.992;2023-08-06T03:33:52;3.97;;;1.67;;
23432;SDS011;41331;45.412;10.992;2023-08-06T03:36:24;3.28;;;1.65;;
23432;SDS011;41331;45.412;10.992;2023-08-06T03:38:52;3.58;;;1.70;;
23432;SDS011;41331;45.412;10.992;2023-08-06T03:41:20;3.80;;;1.60;;
23432;SDS011;41331;45.412;10.992;2023-08-06T03:43:47;3.42;;;1.63;;
23432;SDS011;41331;45.412;10.992;2023-08-06T03:46:21;3.17;;;1.60;;
23432;SDS011;41331;45.412;10.992;2023-08-06T03:48:49;3.55;;;1.58;;
23432;SDS011;41331;45.412;10.992;2023-08-06T03:51:16;3.72;;;1.70;;
23432;SDS011;41331;45.412;10.992;2023-08-06T03:53:47;6.60;;;1.85;;
23432;SDS011;41331;45.412;10.992;2023-08-06T03:56:15;2.90;;;1.40;;
23432;SDS011;41331;45.412;10.992;2023-08-06T03:58:42;5.28;;;1.70;;
23432;SDS011;41331;45.412;10.992;2023-08-06T04:01:10;3.08;;;1.70;;
23432;SDS011;41331;45.412;10.992;2023-08-06T04:03:45;4.18;;;1.45;;
23432;SDS011;41331;45.412;10.992;2023-08-06T04:06:12;2.38;;;1.52;;
23432;SDS011;41331;45.412;10.992;2023-08-06T04:08:40;3.33;;;1.77;;
23432;SDS011;41331;45.412;10.992;2023-08-06T04:11:07;3.53;;;1.50;;
23432;SDS011;41331;45.412;10.992;2023-08-06T04:13:35;3.40;;;1.40;;
23432;SDS011;41331;45.412;10.992;2023-08-06T04:16:03;3.72;;;1.50;;
23432;SDS011;41331;45.412;10.992;2023-08-06T04:18:32;5.15;;;1.52;;
23432;SDS011;41331;45.412;10.992;2023-08-06T04:20:59;3.90;;;1.65;;
23432;SDS011;41331;45.412;10.992;2023-08-06T04:23:28;2.92;;;1.60;;
23432;SDS011;41331;45.412;10.992;2023-08-06T04:28:32;3.53;;;1.25;;
23432;SDS011;41331;45.412;10.992;2023-08-06T04:30:59;3.28;;;1.52;;
23432;SDS011;41331;45.412;10.992;2023-08-06T04:33:31;6.72;;;1.55;;
23432;SDS011;41331;45.412;10.992;2023-08-06T04:36:03;4.97;;;1.63;;
23432;SDS011;41331;45.412;10.992;2023-08-06T04:38:30;9.07;;;1.67;;
23432;SDS011;41331;45.412;10.992;2023-08-06T04:40:58;4.30;;;1.83;;
23432;SDS011;41331;45.412;10.992;2023-08-06T04:43:28;3.70;;;1.70;;
23432;SDS011;41331;45.412;10.992;2023-08-06T04:45:56;3.35;;;1.60;;
23432;SDS011;41331;45.412;10.992;2023-08-06T04:48:26;5.80;;;1.88;;
23432;SDS011;41331;45.412;10.992;2023-08-06T04:50:54;9.13;;;1.75;;
23432;SDS011;41331;45.412;10.992;2023-08-06T04:53:21;5.32;;;2.25;;
23432;SDS011;41331;45.412;10.992;2023-08-06T04:55:49;3.05;;;1.60;;
23432;SDS011;41331;45.412;10.992;2023-08-06T04:58:16;3.92;;;1.65;;
23432;SDS011;41331;45.412;10.992;2023-08-06T05:00:44;3.53;;;1.75;;
23432;SDS011;41331;45.412;10.992;2023-08-06T05:03:11;2.90;;;1.60;;
23432;SDS011;41331;45.412;10.992;2023-08-06T05:05:39;7.07;;;1.45;;
23432;SDS011;41331;45.412;10.992;2023-08-06T05:08:13;2.92;;;1.48;;
23432;SDS011;41331;45.412;10.992;2023-08-06T05:10:44;5.43;;;1.80;;
23432;SDS011;41331;45.412;10.992;2023-08-06T05:13:12;9.48;;;1.75;;
23432;SDS011;41331;45.412;10.992;2023-08-06T05:15:40;2.45;;;1.45;;
23432;SDS011;41331;45.412;10.992;2023-08-06T05:18:10;4.18;;;2.15;;
23432;SDS011;41331;45.412;10.992;2023-08-06T05:20:41;3.85;;;2.08;;
23432;SDS011;41331;45.412;10.992;2023-08-06T05:23:09;4.22;;;2.13;;
23432;SDS011;41331;45.412;10.992;2023-08-06T05:25:37;5.30;;;1.80;;
23432;SDS011;41331;45.412;10.992;2023-08-06T05:28:05;3.00;;;1.80;;
23432;SDS011;41331;45.412;10.992;2023-08-06T05:30:33;3.33;;;1.60;;
23432;SDS011;41331;45.412;10.992;2023-08-06T05:33:00;5.18;;;1.90;;
23432;SDS011;41331;45.412;10.992;2023-08-06T05:35:28;3.22;;;1.63;;
23432;SDS011;41331;45.412;10.992;2023-08-06T05:37:55;6.55;;;2.03;;
23432;SDS011;41331;45.412;10.992;2023-08-06T05:40:22;3.80;;;1.48;;
23432;SDS011;41331;45.412;10.992;2023-08-06T05:42:53;3.40;;;1.73;;
23432;SDS011;41331;45.412;10.992;2023-08-06T05:45:21;3.78;;;1.80;;
23432;SDS011;41331;45.412;10.992;2023-08-06T05:47:48;2.65;;;1.80;;
23432;SDS011;41331;45.412;10.992;2023-08-06T05:50:17;4.35;;;1.75;;
23432;SDS011;41331;45.412;10.992;2023-08-06T05:52:44;6.50;;;1.80;;
23432;SDS011;41331;45.412;10.992;2023-08-06T05:55:12;3.88;;;1.90;;
23432;SDS011;41331;45.412;10.992;2023-08-06T05:57:39;3.38;;;1.92;;
23432;SDS011;41331;45.412;10.992;2023-08-06T06:00:07;5.13;;;1.83;;
23432;SDS011;41331;45.412;10.992;2023-08-06T06:02:40;6.55;;;1.92;;
23432;SDS011;41331;45.412;10.992;2023-08-06T06:05:08;4.90;;;1.88;;
23432;SDS011;41331;45.412;10.992;2023-08-06T06:07:35;6.10;;;2.20;;
23432;SDS011;41331;45.412;10.992;2023-08-06T06:10:03;3.65;;;1.73;;
23432;SDS011;41331;45.412;10.992;2023-08-06T06:12:31;5.80;;;1.80;;
23432;SDS011;41331;45.412;10.992;2023-08-06T06:14:58;2.97;;;1.38;;
23432;SDS011;41331;45.412;10.992;2023-08-06T06:17:28;7.75;;;1.45;;
23432;SDS011;41331;45.412;10.992;2023-08-06T06:19:56;4.40;;;1.30;;
23432;SDS011;41331;45.412;10.992;2023-08-06T06:22:23;3.25;;;1.33;;
23432;SDS011;41331;45.412;10.992;2023-08-06T06:24:51;3.65;;;1.15;;
23432;SDS011;41331;45.412;10.992;2023-08-06T06:27:18;4.65;;;1.13;;
23432;SDS011;41331;45.412;10.992;2023-08-06T06:29:45;3.65;;;1.40;;
23432;SDS011;41331;45.412;10.992;2023-08-06T06:32:13;2.75;;;1.30;;
23432;SDS011;41331;45.412;10.992;2023-08-06T06:34:40;3.50;;;1.42;;
23432;SDS011;41331;45.412;10.992;2023-08-06T06:37:08;5.43;;;1.20;;
23432;SDS011;41331;45.412;10.992;2023-08-06T06:39:35;4.65;;;1.30;;
23432;SDS011;41331;45.412;10.992;2023-08-06T06:42:03;2.55;;;1.13;;
23432;SDS011;41331;45.412;10.992;2023-08-06T06:44:37;3.05;;;1.58;;
23432;SDS011;41331;45.412;10.992;2023-08-06T06:47:04;3.88;;;1.80;;
23432;SDS011;41331;45.412;10.992;2023-08-06T06:49:32;5.07;;;2.00;;
23432;SDS011;41331;45.412;10.992;2023-08-06T06:52:00;3.97;;;1.75;;
23432;SDS011;41331;45.412;10.992;2023-08-06T06:54:27;4.68;;;1.80;;
23432;SDS011;41331;45.412;10.992;2023-08-06T06:56:55;4.72;;;1.95;;
23432;SDS011;41331;45.412;10.992;2023-08-06T06:59:22;6.57;;;1.80;;
23432;SDS011;41331;45.412;10.992;2023-08-06T07:01:49;5.68;;;1.67;;
23432;SDS011;41331;45.412;10.992;2023-08-06T07:04:17;3.97;;;2.22;;
23432;SDS011;41331;45.412;10.992;2023-08-06T07:06:45;5.78;;;2.70;;
23432;SDS011;41331;45.412;10.992;2023-08-06T07:09:12;4.90;;;2.50;;
23432;SDS011;41331;45.412;10.992;2023-08-06T07:11:40;3.70;;;1.90;;
23432;SDS011;41331;45.412;10.992;2023-08-06T07:14:10;4.25;;;2.00;;
23432;SDS011;41331;45.412;10.992;2023-08-06T07:16:38;4.50;;;1.85;;
23432;SDS011;41331;45.412;10.992;2023-08-06T07:19:05;4.97;;;2.00;;
23432;SDS011;41331;45.412;10.992;2023-08-06T07:21:32;5.57;;;2.47;;
23432;SDS011;41331;45.412;10.992;2023-08-06T07:24:00;5.53;;;2.47;;
23432;SDS011;41331;45.412;10.992;2023-08-06T07:26:27;3.30;;;1.23;;
23432;SDS011;41331;45.412;10.992;2023-08-06T07:28:55;4.05;;;1.10;;
23432;SDS011;41331;45.412;10.992;2023-08-06T07:31:23;2.08;;;1.08;;
23432;SDS011;41331;45.412;10.992;2023-08-06T07:33:50;2.25;;;0.90;;
23432;SDS011;41331;45.412;10.992;2023-08-06T07:36:18;1.85;;;0.70;;
23432;SDS011;41331;45.412;10.992;2023-08-06T07:38:45;3.80;;;1.70;;
23432;SDS011;41331;45.412;10.992;2023-08-06T07:41:13;3.10;;;1.80;;
23432;SDS011;41331;45.412;10.992;2023-08-06T07:43:40;3.67;;;2.00;;
23432;SDS011;41331;45.412;10.992;2023-08-06T07:46:09;4.28;;;2.00;;
23432;SDS011;41331;45.412;10.992;2023-08-06T07:48:37;2.60;;;1.33;;
23432;SDS011;41331;45.412;10.992;2023-08-06T07:51:04;5.45;;;1.85;;
23432;SDS011;41331;45.412;10.992;2023-08-06T07:53:31;3.72;;;1.60;;
23432;SDS011;41331;45.412;10.992;2023-08-06T07:55:59;4.15;;;1.67;;
23432;SDS011;41331;45.412;10.992;2023-08-06T07:58:29;5.38;;;1.30;;
23432;SDS011;41331;45.412;10.992;2023-08-06T08:00:56;3.70;;;1.48;;
23432;SDS011;41331;45.412;10.992;2023-08-06T08:03:24;3.00;;;1.60;;
23432;SDS011;41331;45.412;10.992;2023-08-06T08:05:54;4.13;;;1.40;;
23432;SDS011;41331;45.412;10.992;2023-08-06T08:08:24;6.45;;;1.30;;
23432;SDS011;41331;45.412;10.992;2023-08-06T08:10:52;4.68;;;1.20;;
23432;SDS011;41331;45.412;10.992;2023-08-06T08:13:19;2.72;;;0.95;;
23432;SDS011;41331;45.412;10.992;2023-08-06T08:15:47;2.92;;;0.90;;
23432;SDS011;41331;45.412;10.992;2023-08-06T08:18:14;3.08;;;0.60;;
23432;SDS011;41331;45.412;10.992;2023-08-06T08:20:43;1.58;;;0.50;;
23432;SDS011;41331;45.412;10.992;2023-08-06T08:23:10;0.93;;;0.40;;
23432;SDS011;41331;45.412;10.992;2023-08-06T08:25:38;2.88;;;0.68;;
23432;SDS011;41331;45.412;10.992;2023-08-06T08:28:08;4.18;;;0.77;;
23432;SDS011;41331;45.412;10.992;2023-08-06T08:30:35;2.70;;;0.80;;
23432;SDS011;41331;45.412;10.992;2023-08-06T08:33:03;3.05;;;0.85;;
23432;SDS011;41331;45.412;10.992;2023-08-06T08:35:30;1.92;;;0.77;;
23432;SDS011;41331;45.412;10.992;2023-08-06T08:37:58;1.60;;;0.60;;
23432;SDS011;41331;45.412;10.992;2023-08-06T08:40:27;2.30;;;0.90;;
23432;SDS011;41331;45.412;10.992;2023-08-06T08:43:00;1.80;;;0.88;;
23432;SDS011;41331;45.412;10.992;2023-08-06T08:45:28;2.35;;;1.00;;
23432;SDS011;41331;45.412;10.992;2023-08-06T08:47:57;4.43;;;0.82;;
23432;SDS011;41331;45.412;10.992;2023-08-06T08:50:24;5.70;;;1.10;;
23432;SDS011;41331;45.412;10.992;2023-08-06T08:52:52;5.05;;;1.10;;
23432;SDS011;41331;45.412;10.992;2023-08-06T08:55:19;4.00;;;1.05;;
23432;SDS011;41331;45.412;10.992;2023-08-06T08:57:49;2.35;;;1.10;;
23432;SDS011;41331;45.412;10.992;2023-08-06T09:00:16;3.30;;;1.13;;
23432;SDS011;41331;45.412;10.992;2023-08-06T09:02:45;5.63;;;1.40;;
23432;SDS011;41331;45.412;10.992;2023-08-06T09:05:13;4.20;;;1.27;;
23432;SDS011;41331;45.412;10.992;2023-08-06T09:07:42;3.40;;;1.30;;
23432;SDS011;41331;45.412;10.992;2023-08-06T09:12:44;4.07;;;1.30;;
23432;SDS011;41331;45.412;10.992;2023-08-06T09:15:13;2.90;;;1.30;;
23432;SDS011;41331;45.412;10.992;2023-08-06T09:17:41;2.75;;;1.20;;
23432;SDS011;41331;45.412;10.992;2023-08-06T09:20:12;3.13;;;1.20;;
23432;SDS011;41331;45.412;10.992;2023-08-06T09:22:40;2.65;;;1.30;;
23432;SDS011;41331;45.412;10.992;2023-08-06T09:25:08;2.83;;;1.40;;
23432;SDS011;41331;45.412;10.992;2023-08-06T09:27:41;3.92;;;1.35;;
23432;SDS011;41331;45.412;10.992;2023-08-06T09:30:13;2.28;;;1.23;;
23432;SDS011;41331;45.412;10.992;2023-08-06T09:32:59;3.50;;;1.33;;
23432;SDS011;41331;45.412;10.992;2023-08-06T09:35:31;2.10;;;1.27;;
23432;SDS011;41331;45.412;10.992;2023-08-06T09:40:37;2.17;;;0.90;;
23432;SDS011;41331;45.412;10.992;2023-08-06T09:43:06;3.70;;;1.00;;
23432;SDS011;41331;45.412;10.992;2023-08-06T09:45:37;1.67;;;0.70;;
23432;SDS011;41331;45.412;10.992;2023-08-06T09:48:06;1.90;;;0.88;;
23432;SDS011;41331;45.412;10.992;2023-08-06T09:50:35;3.65;;;0.90;;
23432;SDS011;41331;45.412;10.992;2023-08-06T09:53:06;3.05;;;0.80;;
23432;SDS011;41331;45.412;10.992;2023-08-06T09:55:35;2.50;;;0.80;;
23432;SDS011;41331;45.412;10.992;2023-08-06T09:58:03;2.33;;;0.90;;
23432;SDS011;41331;45.412;10.992;2023-08-06T10:00:33;2.75;;;0.90;;
23432;SDS011;41331;45.412;10.992;2023-08-06T10:03:06;2.88;;;0.80;;
23432;SDS011;41331;45.412;10.992;2023-08-06T10:05:35;1.40;;;0.70;;
23432;SDS011;41331;45.412;10.992;2023-08-06T10:08:03;2.05;;;0.77;;
23432;SDS011;41331;45.412;10.992;2023-08-06T10:10:34;4.10;;;0.80;;
23432;SDS011;41331;45.412;10.992;2023-08-06T10:13:03;2.38;;;1.00;;
23432;SDS011;41331;45.412;10.992;2023-08-06T10:15:33;3.75;;;1.00;;
23432;SDS011;41331;45.412;10.992;2023-08-06T10:18:03;1.70;;;0.90;;
23432;SDS011;41331;45.412;10.992;2023-08-06T10:20:34;2.33;;;0.90;;
23432;SDS011;41331;45.412;10.992;2023-08-06T10:23:03;2.75;;;0.88;;
23432;SDS011;41331;45.412;10.992;2023-08-06T10:25:39;2.42;;;1.00;;
23432;SDS011;41331;45.412;10.992;2023-08-06T10:28:09;1.92;;;1.02;;
23432;SDS011;41331;45.412;10.992;2023-08-06T10:33:15;5.28;;;1.63;;
23432;SDS011;41331;45.412;10.992;2023-08-06T10:35:46;3.33;;;1.33;;
23432;SDS011;41331;45.412;10.992;2023-08-06T10:38:18;2.70;;;1.35;;
23432;SDS011;41331;45.412;10.992;2023-08-06T10:43:27;2.78;;;1.50;;
23432;SDS011;41331;45.412;10.992;2023-08-06T10:45:56;3.22;;;1.50;;
23432;SDS011;41331;45.412;10.992;2023-08-06T10:48:45;3.72;;;1.70;;
23432;SDS011;41331;45.412;10.992;2023-08-06T10:51:13;3.42;;;1.50;;
23432;SDS011;41331;45.412;10.992;2023-08-06T10:53:43;3.88;;;1.88;;
23432;SDS011;41331;45.412;10.992;2023-08-06T10:56:12;3.50;;;1.75;;
23432;SDS011;41331;45.412;10.992;2023-08-06T11:01:14;3.65;;;1.95;;
23432;SDS011;41331;45.412;10.992;2023-08-06T11:03:43;3.45;;;1.92;;
23432;SDS011;41331;45.412;10.992;2023-08-06T11:06:16;2.30;;;1.25;;
23432;SDS011;41331;45.412;10.992;2023-08-06T11:08:51;2.95;;;1.30;;
23432;SDS011;41331;45.412;10.992;2023-08-06T11:11:23;3.78;;;2.10;;
23432;SDS011;41331;45.412;10.992;2023-08-06T11:13:51;3.28;;;1.90;;
23432;SDS011;41331;45.412;10.992;2023-08-06T11:16:23;2.75;;;1.70;;
23432;SDS011;41331;45.412;10.992;2023-08-06T11:18:52;6.57;;;1.52;;
23432;SDS011;41331;45.412;10.992;2023-08-06T11:21:21;3.42;;;1.48;;
23432;SDS011;41331;45.412;10.992;2023-08-06T11:23:51;6.75;;;1.33;;
23432;SDS011;41331;45.412;10.992;2023-08-06T11:26:20;5.03;;;1.40;;
23432;SDS011;41331;45.412;10.992;2023-08-06T11:28:50;3.50;;;1.30;;
23432;SDS011;41331;45.412;10.992;2023-08-06T11:31:18;2.58;;;1.10;;
23432;SDS011;41331;45.412;10.992;2023-08-06T11:33:50;3.10;;;1.00;;
23432;SDS011;41331;45.412;10.992;2023-08-06T11:36:33;2.63;;;0.90;;
23432;SDS011;41331;45.412;10.992;2023-08-06T11:39:03;1.73;;;0.65;;
23432;SDS011;41331;45.412;10.992;2023-08-06T11:41:33;1.45;;;0.50;;
23432;SDS011;41331;45.412;10.992;2023-08-06T11:44:03;1.25;;;0.50;;
23432;SDS011;41331;45.412;10.992;2023-08-06T11:46:49;1.35;;;0.68;;
23432;SDS011;41331;45.412;10.992;2023-08-06T11:49:17;2.10;;;0.80;;
23432;SDS011;41331;45.412;10.992;2023-08-06T11:51:48;4.43;;;0.77;;
23432;SDS011;41331;45.412;10.992;2023-08-06T11:54:15;2.25;;;1.00;;
23432;SDS011;41331;45.412;10.992;2023-08-06T11:56:43;1.58;;;0.77;;
23432;SDS011;41331;45.412;10.992;2023-08-06T11:59:13;2.38;;;0.60;;
23432;SDS011;41331;45.412;10.992;2023-08-06T12:01:40;1.85;;;0.80;;
23432;SDS011;41331;45.412;10.992;2023-08-06T12:04:08;4.32;;;0.85;;
23432;SDS011;41331;45.412;10.992;2023-08-06T12:06:41;1.20;;;0.60;;
23432;SDS011;41331;45.412;10.992;2023-08-06T12:09:10;1.88;;;0.60;;
23432;SDS011;41331;45.412;10.992;2023-08-06T12:11:37;1.63;;;0.60;;
23432;SDS011;41331;45.412;10.992;2023-08-06T12:14:08;1.10;;;0.52;;
23432;SDS011;41331;45.412;10.992;2023-08-06T12:16:35;1.67;;;0.50;;
23432;SDS011;41331;45.412;10.992;2023-08-06T12:19:03;0.95;;;0.50;;
23432;SDS011;41331;45.412;10.992;2023-08-06T12:21:31;1.13;;;0.40;;
23432;SDS011;41331;45.412;10.992;2023-08-06T12:23:58;1.45;;;0.60;;
23432;SDS011;41331;45.412;10.992;2023-08-06T12:26:26;2.80;;;0.60;;
23432;SDS011;41331;45.412;10.992;2023-08-06T12:28:53;1.15;;;0.43;;
23432;SDS011;41331;45.412;10.992;2023-08-06T12:31:22;1.20;;;0.50;;
23432;SDS011;41331;45.412;10.992;2023-08-06T12:33:49;5.07;;;0.60;;
23432;SDS011;41331;45.412;10.992;2023-08-06T12:36:17;1.20;;;0.60;;
23432;SDS011;41331;45.412;10.992;2023-08-06T12:38:44;0.85;;;0.35;;
23432;SDS011;41331;45.412;10.992;2023-08-06T12:41:12;4.47;;;0.70;;
23432;SDS011;41331;45.412;10.992;2023-08-06T12:43:39;1.55;;;0.55;;
23432;SDS011;41331;45.412;10.992;2023-08-06T12:46:06;1.60;;;0.50;;
23432;SDS011;41331;45.412;10.992;2023-08-06T12:48:34;2.78;;;0.50;;
23432;SDS011;41331;45.412;10.992;2023-08-06T12:51:01;1.48;;;0.55;;
23432;SDS011;41331;45.412;10.992;2023-08-06T12:53:29;3.00;;;0.65;;
23432;SDS011;41331;45.412;10.992;2023-08-06T12:55:56;1.75;;;0.50;;
23432;SDS011;41331;45.412;10.992;2023-08-06T12:58:23;1.45;;;0.57;;
23432;SDS011;41331;45.412;10.992;2023-08-06T13:00:51;1.13;;;0.47;;
23432;SDS011;41331;45.412;10.992;2023-08-06T13:03:18;1.48;;;0.52;;
23432;SDS011;41331;45.412;10.992;2023-08-06T13:05:46;1.55;;;0.43;;
23432;SDS011;41331;45.412;10.992;2023-08-06T13:08:13;0.95;;;0.40;;
23432;SDS011;41331;45.412;10.992;2023-08-06T13:10:41;1.15;;;0.40;;
23432;SDS011;41331;45.412;10.992;2023-08-06T13:13:08;1.25;;;0.40;;
23432;SDS011;41331;45.412;10.992;2023-08-06T13:15:37;1.55;;;0.47;;
23432;SDS011;41331;45.412;10.992;2023-08-06T13:18:04;0.50;;;0.20;;
23432;SDS011;41331;45.412;10.992;2023-08-06T13:20:32;0.95;;;0.40;;
23432;SDS011;41331;45.412;10.992;2023-08-06T13:22:59;1.20;;;0.40;;
23432;SDS011;41331;45.412;10.992;2023-08-06T13:25:28;1.17;;;0.32;;
23432;SDS011;41331;45.412;10.992;2023-08-06T13:27:55;1.02;;;0.40;;
23432;SDS011;41331;45.412;10.992;2023-08-06T13:30:23;1.13;;;0.40;;
23432;SDS011;41331;45.412;10.992;2023-08-06T13:32:50;0.82;;;0.38;;
23432;SDS011;41331;45.412;10.992;2023-08-06T13:35:18;0.40;;;0.20;;
23432;SDS011;41331;45.412;10.992;2023-08-06T13:37:45;0.82;;;0.47;;
23432;SDS011;41331;45.412;10.992;2023-08-06T13:40:15;1.60;;;0.50;;
23432;SDS011;41331;45.412;10.992;2023-08-06T13:42:42;1.83;;;0.43;;
23432;SDS011;41331;45.412;10.992;2023-08-06T13:45:10;0.80;;;0.40;;
23432;SDS011;41331;45.412;10.992;2023-08-06T13:47:38;2.50;;;0.40;;
23432;SDS011;41331;45.412;10.992;2023-08-06T13:50:05;1.42;;;0.40;;
23432;SDS011;41331;45.412;10.992;2023-08-06T13:52:36;0.80;;;0.40;;
23432;SDS011;41331;45.412;10.992;2023-08-06T13:55:03;0.80;;;0.22;;
23432;SDS011;41331;45.412;10.992;2023-08-06T13:57:31;2.35;;;0.40;;
23432;SDS011;41331;45.412;10.992;2023-08-06T13:59:58;3.00;;;0.40;;
23432;SDS011;41331;45.412;10.992;2023-08-06T14:02:26;0.73;;;0.40;;
23432;SDS011;41331;45.412;10.992;2023-08-06T14:04:54;0.60;;;0.30;;
23432;SDS011;41331;45.412;10.992;2023-08-06T14:07:21;1.10;;;0.35;;
23432;SDS011;41331;45.412;10.992;2023-08-06T14:09:49;1.00;;;0.32;;
23432;SDS011;41331;45.412;10.992;2023-08-06T14:12:16;1.58;;;0.30;;
23432;SDS011;41331;45.412;10.992;2023-08-06T14:14:44;3.88;;;0.40;;
23432;SDS011;41331;45.412;10.992;2023-08-06T14:17:11;1.15;;;0.40;;
23432;SDS011;41331;45.412;10.992;2023-08-06T14:19:39;1.25;;;0.45;;
23432;SDS011;41331;45.412;10.992;2023-08-06T14:22:06;0.95;;;0.30;;
23432;SDS011;41331;45.412;10.992;2023-08-06T14:24:34;0.80;;;0.38;;
23432;SDS011;41331;45.412;10.992;2023-08-06T14:27:01;0.63;;;0.20;;
23432;SDS011;41331;45.412;10.992;2023-08-06T14:29:31;1.35;;;0.30;;
23432;SDS011;41331;45.412;10.992;2023-08-06T14:31:58;1.55;;;0.60;;
23432;SDS011;41331;45.412;10.992;2023-08-06T14:34:26;1.45;;;0.50;;
23432;SDS011;41331;45.412;10.992;2023-08-06T14:36:54;1.45;;;0.50;;
23432;SDS011;41331;45.412;10.992;2023-08-06T14:39:22;1.13;;;0.43;;
23432;SDS011;41331;45.412;10.992;2023-08-06T14:41:50;1.00;;;0.38;;
23432;SDS011;41331;45.412;10.992;2023-08-06T14:44:17;2.95;;;0.45;;
23432;SDS011;41331;45.412;10.992;2023-08-06T14:46:44;3.33;;;0.50;;
23432;SDS011;41331;45.412;10.992;2023-08-06T14:49:12;0.88;;;0.30;;
23432;SDS011;41331;45.412;10.992;2023-08-06T14:51:40;1.10;;;0.50;;
23432;SDS011;41331;45.412;10.992;2023-08-06T14:54:07;0.70;;;0.50;;
23432;SDS011;41331;45.412;10.992;2023-08-06T14:56:35;1.27;;;0.40;;
23432;SDS011;41331;45.412;10.992;2023-08-06T14:59:02;0.85;;;0.40;;
23432;SDS011;41331;45.412;10.992;2023-08-06T15:01:30;2.42;;;0.60;;
23432;SDS011;41331;45.412;10.992;2023-08-06T15:03:58;5.25;;;0.60;;
23432;SDS011;41331;45.412;10.992;2023-08-06T15:06:25;1.48;;;0.50;;
23432;SDS011;41331;45.412;10.992;2023-08-06T15:08:53;1.60;;;0.55;;